createdAt,value
2023-04-08T00:00:27.280Z,243.21
2023-04-08T00:01:27.282Z,245.29
2023-04-08T00:02:27.437Z,245.98
2023-04-08T00:03:27.438Z,242.50
2023-04-08T00:04:27.561Z,234.82
2023-04-08T00:05:27.409Z,231.59
2023-04-08T00:06:27.446Z,231.10
2023-04-08T00:07:27.523Z,229.75
2023-04-08T00:08:27.499Z,225.44
2023-04-08T00:09:27.543Z,223.31
2023-04-08T00:10:27.583Z,224.25
2023-04-08T00:11:27.621Z,223.60
2023-04-08T00:12:27.650Z,220.81
2023-04-08T00:13:27.672Z,219.60
2023-04-08T00:14:27.718Z,216.66
2023-04-08T00:15:27.728Z,216.85
2023-04-08T00:16:27.808Z,219.28
2023-04-08T00:17:27.815Z,224.58
2023-04-08T00:18:27.823Z,229.04
2023-04-08T00:19:27.868Z,234.35
2023-04-08T00:20:27.929Z,238.32
2023-04-08T00:21:27.954Z,234.24
2023-04-08T00:22:27.987Z,231.70
2023-04-08T00:23:28.020Z,229.93
2023-04-08T00:24:28.024Z,231.20
2023-04-08T00:25:28.076Z,229.24
2023-04-08T00:26:28.086Z,227.68
2023-04-08T00:27:28.099Z,224.36
2023-04-08T00:28:28.110Z,221.94
2023-04-08T00:29:28.103Z,222.37
2023-04-08T00:30:28.134Z,224.21
2023-04-08T00:31:28.192Z,230.21
2023-04-08T00:32:28.223Z,236.28
2023-04-08T00:33:28.200Z,241.26
2023-04-08T00:34:28.242Z,246.31
2023-04-08T00:35:28.319Z,247.30
2023-04-08T00:36:28.310Z,249.91
2023-04-08T00:37:28.358Z,251.08
2023-04-08T00:38:28.443Z,250.01
2023-04-08T00:39:28.478Z,249.43
2023-04-08T00:40:28.504Z,245.72
2023-04-08T00:41:28.585Z,241.30
2023-04-08T00:42:28.565Z,235.23
2023-04-08T00:43:28.593Z,232.30
2023-04-08T00:44:28.632Z,230.01
2023-04-08T00:45:28.665Z,230.40
2023-04-08T00:46:28.714Z,230.73
2023-04-08T00:47:28.791Z,230.18
2023-04-08T00:48:28.759Z,228.74
2023-04-08T00:49:28.777Z,228.73
2023-04-08T00:50:28.793Z,230.57
2023-04-08T00:51:28.845Z,227.28
2023-04-08T00:52:28.851Z,221.70
2023-04-08T00:53:28.903Z,217.95
2023-04-08T00:54:28.964Z,214.50
2023-04-08T00:55:29.184Z,210.67
2023-04-08T00:56:29.092Z,210.53
2023-04-08T00:57:29.129Z,212.08
2023-04-08T00:58:29.196Z,212.05
2023-04-08T00:59:29.240Z,209.44
2023-04-08T01:00:29.297Z,205.42
2023-04-08T01:01:29.421Z,203.84
2023-04-08T01:02:29.588Z,204.51
2023-04-08T01:03:29.547Z,203.20
2023-04-08T01:04:29.435Z,203.66
2023-04-08T01:05:29.448Z,202.35
2023-04-08T01:06:29.501Z,203.89
2023-04-08T01:07:29.513Z,209.87
2023-04-08T01:08:29.555Z,218.44
2023-04-08T01:09:29.601Z,226.67
2023-04-08T01:10:29.630Z,234.27
2023-04-08T01:11:29.649Z,240.98
2023-04-08T01:12:29.694Z,244.96
2023-04-08T01:13:29.705Z,241.54
2023-04-08T01:14:29.766Z,240.57
2023-04-08T01:15:29.787Z,239.30
2023-04-08T01:16:30.067Z,239.40
2023-04-08T01:17:29.861Z,240.00
2023-04-08T01:18:29.857Z,241.70
2023-04-08T01:19:29.863Z,243.35
2023-04-08T01:20:29.889Z,245.68
2023-04-08T01:21:29.861Z,246.13
2023-04-08T01:22:29.912Z,242.35
2023-04-08T01:23:29.876Z,237.65
2023-04-08T01:24:29.911Z,240.12
2023-04-08T01:25:29.896Z,243.96
2023-04-08T01:26:29.874Z,245.15
2023-04-08T01:27:29.891Z,243.21
2023-04-08T01:28:29.889Z,242.37
2023-04-08T01:29:29.897Z,243.29
2023-04-08T01:30:29.913Z,241.80
2023-04-08T01:31:30.003Z,239.68
2023-04-08T01:32:29.988Z,235.84
2023-04-08T01:33:29.921Z,235.06
2023-04-08T01:34:29.936Z,234.63
2023-04-08T01:35:29.960Z,233.13
2023-04-08T01:36:29.961Z,229.71
2023-04-08T01:37:29.976Z,225.59
2023-04-08T01:38:29.950Z,219.16
2023-04-08T01:39:29.955Z,214.17
2023-04-08T01:40:29.942Z,215.43
2023-04-08T01:41:29.953Z,220.79
2023-04-08T01:42:30.001Z,228.08
2023-04-08T01:43:30.000Z,231.79
2023-04-08T01:44:29.997Z,229.72
2023-04-08T01:45:30.049Z,227.07
2023-04-08T01:46:30.087Z,228.02
2023-04-08T01:47:30.124Z,229.82
2023-04-08T01:48:30.099Z,231.05
2023-04-08T01:49:30.154Z,231.14
2023-04-08T01:50:30.173Z,231.13
2023-04-08T01:51:30.294Z,231.80
2023-04-08T01:52:30.307Z,232.65
2023-04-08T01:53:30.334Z,232.01
2023-04-08T01:54:30.333Z,233.91
2023-04-08T01:55:30.345Z,237.16
2023-04-08T01:56:30.402Z,240.34
2023-04-08T01:57:30.410Z,242.19
2023-04-08T01:58:30.442Z,245.30
2023-04-08T01:59:30.486Z,251.74
2023-04-08T02:00:30.515Z,252.70
2023-04-08T02:01:30.717Z,250.24
2023-04-08T02:02:30.733Z,249.17
2023-04-08T02:03:31.001Z,247.81
2023-04-08T02:04:30.789Z,248.52
2023-04-08T02:05:30.685Z,248.79
2023-04-08T02:06:30.722Z,247.56
2023-04-08T02:07:30.756Z,247.17
2023-04-08T02:08:30.788Z,249.50
2023-04-08T02:09:30.827Z,250.44
2023-04-08T02:10:30.889Z,250.17
2023-04-08T02:11:30.945Z,249.97
2023-04-08T02:12:30.992Z,248.17
2023-04-08T02:13:31.015Z,244.30
2023-04-08T02:14:31.046Z,244.24
2023-04-08T02:15:31.099Z,245.34
2023-04-08T02:16:31.156Z,243.80
2023-04-08T02:17:31.195Z,238.58
2023-04-08T02:18:31.202Z,235.40
2023-04-08T02:19:31.203Z,232.05
2023-04-08T02:20:31.241Z,229.77
2023-04-08T02:21:31.271Z,234.69
2023-04-08T02:22:31.297Z,238.62
2023-04-08T02:23:31.315Z,239.07
2023-04-08T02:24:31.326Z,238.97
2023-04-08T02:25:31.383Z,240.24
2023-04-08T02:26:31.388Z,241.32
2023-04-08T02:27:31.410Z,240.79
2023-04-08T02:28:31.457Z,244.21
2023-04-08T02:29:31.486Z,248.98
2023-04-08T02:30:31.512Z,250.00
2023-04-08T02:31:31.651Z,248.79
2023-04-08T02:32:31.644Z,247.37
2023-04-08T02:33:31.634Z,245.58
2023-04-08T02:34:31.647Z,244.62
2023-04-08T02:35:31.708Z,245.07
2023-04-08T02:36:31.730Z,246.67
2023-04-08T02:37:31.759Z,248.13
2023-04-08T02:38:31.798Z,250.01
2023-04-08T02:39:31.870Z,250.11
2023-04-08T02:40:31.933Z,249.99
2023-04-08T02:41:31.978Z,249.86
2023-04-08T02:42:32.047Z,249.71
2023-04-08T02:43:32.045Z,249.26
2023-04-08T02:44:32.059Z,249.43
2023-04-08T02:45:32.142Z,249.07
2023-04-08T02:46:32.136Z,249.48
2023-04-08T02:47:32.218Z,250.00
2023-04-08T02:48:32.232Z,250.17
2023-04-08T02:49:32.295Z,253.93
2023-04-08T02:50:32.349Z,254.20
2023-04-08T02:51:32.425Z,252.31
2023-04-08T02:52:32.478Z,249.85
2023-04-08T02:53:32.597Z,246.77
2023-04-08T02:54:32.553Z,245.54
2023-04-08T02:55:32.576Z,242.56
2023-04-08T02:56:32.606Z,242.23
2023-04-08T02:57:32.635Z,240.05
2023-04-08T02:58:32.652Z,237.47
2023-04-08T02:59:32.665Z,232.61
2023-04-08T03:00:32.678Z,227.33
2023-04-08T03:01:32.772Z,224.37
2023-04-08T03:02:32.868Z,223.03
2023-04-08T03:03:32.816Z,224.52
2023-04-08T03:04:32.768Z,224.09
2023-04-08T03:05:32.824Z,224.33
2023-04-08T03:06:32.837Z,222.11
2023-04-08T03:07:32.841Z,220.05
2023-04-08T03:08:32.877Z,219.06
2023-04-08T03:09:32.906Z,217.18
2023-04-08T03:10:32.950Z,216.47
2023-04-08T03:11:33.002Z,214.84
2023-04-08T03:12:33.105Z,212.97
2023-04-08T03:13:33.068Z,210.09
2023-04-08T03:14:33.091Z,208.02
2023-04-08T03:15:33.113Z,205.78
2023-04-08T03:16:33.153Z,205.78
2023-04-08T03:17:33.231Z,207.59
2023-04-08T03:18:33.190Z,207.97
2023-04-08T03:19:33.239Z,207.69
2023-04-08T03:20:33.262Z,205.98
2023-04-08T03:21:33.271Z,205.52
2023-04-08T03:22:33.342Z,207.46
2023-04-08T03:23:33.331Z,210.21
2023-04-08T03:24:33.358Z,212.25
2023-04-08T03:25:33.398Z,211.81
2023-04-08T03:26:33.444Z,209.67
2023-04-08T03:27:33.467Z,207.38
2023-04-08T03:28:33.502Z,206.87
2023-04-08T03:29:33.515Z,206.55
2023-04-08T03:30:33.557Z,209.41
2023-04-08T03:31:33.611Z,213.99
2023-04-08T03:32:33.696Z,217.54
2023-04-08T03:33:33.635Z,219.50
2023-04-08T03:34:33.681Z,220.87
2023-04-08T03:35:33.757Z,222.96
2023-04-08T03:36:33.752Z,228.33
2023-04-08T03:37:33.793Z,235.81
2023-04-08T03:38:33.806Z,242.69
2023-04-08T03:39:33.866Z,247.25
2023-04-08T03:40:33.877Z,245.35
2023-04-08T03:41:33.927Z,240.34
2023-04-08T03:42:33.931Z,234.63
2023-04-08T03:43:35.210Z,228.23
2023-04-08T03:44:33.982Z,226.02
2023-04-08T03:45:33.960Z,224.77
2023-04-08T03:46:33.960Z,224.88
2023-04-08T03:47:33.987Z,224.28
2023-04-08T03:48:33.927Z,220.45
2023-04-08T03:49:33.936Z,218.80
2023-04-08T03:50:33.926Z,216.03
2023-04-08T03:51:33.933Z,213.97
2023-04-08T03:52:33.920Z,211.13
2023-04-08T03:53:33.894Z,211.22
2023-04-08T03:54:33.907Z,214.53
2023-04-08T03:55:33.889Z,211.50
2023-04-08T03:56:33.870Z,207.25
2023-04-08T03:57:33.886Z,204.41
2023-04-08T03:58:33.871Z,201.06
2023-04-08T03:59:33.871Z,200.16
2023-04-08T04:00:33.856Z,200.66
2023-04-08T04:01:33.858Z,200.54
2023-04-08T04:02:34.033Z,202.08
2023-04-08T04:03:33.973Z,203.37
2023-04-08T04:04:33.893Z,204.88
2023-04-08T04:05:33.834Z,205.04
2023-04-08T04:06:33.797Z,206.35
2023-04-08T04:07:33.791Z,206.46
2023-04-08T04:08:33.792Z,208.79
2023-04-08T04:09:33.774Z,207.63
2023-04-08T04:10:33.785Z,203.84
2023-04-08T04:11:33.779Z,200.75
2023-04-08T04:12:33.771Z,197.87
2023-04-08T04:13:33.755Z,195.67
2023-04-08T04:14:33.762Z,195.45
2023-04-08T04:15:33.751Z,196.06
2023-04-08T04:16:33.756Z,195.96
2023-04-08T04:17:33.738Z,196.48
2023-04-08T04:18:33.777Z,197.80
2023-04-08T04:19:33.737Z,196.32
2023-04-08T04:20:33.715Z,193.62
2023-04-08T04:21:33.709Z,194.91
2023-04-08T04:22:33.733Z,198.52
2023-04-08T04:23:33.694Z,206.70
2023-04-08T04:24:33.756Z,215.24
2023-04-08T04:25:33.666Z,221.31
2023-04-08T04:26:33.660Z,226.26
2023-04-08T04:27:33.677Z,232.79
2023-04-08T04:28:33.656Z,238.47
2023-04-08T04:29:33.641Z,241.12
2023-04-08T04:30:33.632Z,242.24
2023-04-08T04:31:33.641Z,242.25
2023-04-08T04:32:33.640Z,243.47
2023-04-08T04:33:33.629Z,248.27
2023-04-08T04:34:33.601Z,251.90
2023-04-08T04:35:33.620Z,257.74
2023-04-08T04:36:33.588Z,259.64
2023-04-08T04:37:33.591Z,255.49
2023-04-08T04:38:33.588Z,249.19
2023-04-08T04:39:33.592Z,241.97
2023-04-08T04:40:33.581Z,236.85
2023-04-08T04:41:33.552Z,236.31
2023-04-08T04:42:33.567Z,235.71
2023-04-08T04:43:33.539Z,235.06
2023-04-08T04:44:33.528Z,237.63
2023-04-08T04:45:33.517Z,239.39
2023-04-08T04:46:33.648Z,238.60
2023-04-08T04:47:33.517Z,238.59
2023-04-08T04:48:33.499Z,236.47
2023-04-08T04:49:33.485Z,235.64
2023-04-08T04:50:33.486Z,233.42
2023-04-08T04:51:33.489Z,231.07
2023-04-08T04:52:33.465Z,228.87
2023-04-08T04:53:33.477Z,226.46
2023-04-08T04:54:33.461Z,223.74
2023-04-08T04:55:33.460Z,221.63
2023-04-08T04:56:33.465Z,217.36
2023-04-08T04:57:33.450Z,214.79
2023-04-08T04:58:33.448Z,214.05
2023-04-08T04:59:33.425Z,214.27
2023-04-08T05:00:33.419Z,217.50
2023-04-08T05:01:33.477Z,222.51
2023-04-08T05:02:33.540Z,225.81
2023-04-08T05:03:33.439Z,225.16
2023-04-08T05:04:33.420Z,222.88
2023-04-08T05:05:33.403Z,219.53
2023-04-08T05:06:33.378Z,215.67
2023-04-08T05:07:33.384Z,211.62
2023-04-08T05:08:33.368Z,206.14
2023-04-08T05:09:33.370Z,201.36
2023-04-08T05:10:33.362Z,199.37
2023-04-08T05:11:33.367Z,199.72
2023-04-08T05:12:33.331Z,200.97
2023-04-08T05:13:33.332Z,201.83
2023-04-08T05:14:33.335Z,202.32
2023-04-08T05:15:33.308Z,204.52
2023-04-08T05:16:33.409Z,206.29
2023-04-08T05:17:33.345Z,205.31
2023-04-08T05:18:33.303Z,203.82
2023-04-08T05:19:33.301Z,207.43
2023-04-08T05:20:33.274Z,214.98
2023-04-08T05:21:33.267Z,215.03
2023-04-08T05:22:33.261Z,214.04
2023-04-08T05:23:33.285Z,211.42
2023-04-08T05:24:33.256Z,207.30
2023-04-08T05:25:33.259Z,205.82
2023-04-08T05:26:33.234Z,204.70
2023-04-08T05:27:33.238Z,203.55
2023-04-08T05:28:33.232Z,201.40
2023-04-08T05:29:33.229Z,200.71
2023-04-08T05:30:33.216Z,201.68
2023-04-08T05:31:33.263Z,206.00
2023-04-08T05:32:33.273Z,208.38
2023-04-08T05:33:33.257Z,204.84
2023-04-08T05:34:33.236Z,209.64
2023-04-08T05:35:33.314Z,216.26
2023-04-08T05:36:33.286Z,222.35
2023-04-08T05:37:33.314Z,227.90
2023-04-08T05:38:33.356Z,231.62
2023-04-08T05:39:33.365Z,235.09
2023-04-08T05:40:33.367Z,237.03
2023-04-08T05:41:33.397Z,236.43
2023-04-08T05:42:33.425Z,238.15
2023-04-08T05:43:33.450Z,238.44
2023-04-08T05:44:33.481Z,237.84
2023-04-08T05:45:33.537Z,237.67
2023-04-08T05:46:33.574Z,237.72
2023-04-08T05:47:33.592Z,236.17
2023-04-08T05:48:33.647Z,233.83
2023-04-08T05:49:33.683Z,233.34
2023-04-08T05:50:33.721Z,236.57
2023-04-08T05:51:33.767Z,250.77
2023-04-08T05:52:33.819Z,250.94
2023-04-08T05:53:33.874Z,249.56
2023-04-08T05:54:33.899Z,247.86
2023-04-08T05:55:33.941Z,243.97
2023-04-08T05:56:33.960Z,240.95
2023-04-08T05:57:34.002Z,238.03
2023-04-08T05:58:34.031Z,231.98
2023-04-08T05:59:34.032Z,229.74
2023-04-08T06:00:34.057Z,231.19
2023-04-08T06:01:34.154Z,230.85
2023-04-08T06:02:34.140Z,224.26
2023-04-08T06:03:34.213Z,218.76
2023-04-08T06:04:34.180Z,213.62
2023-04-08T06:05:34.098Z,208.24
2023-04-08T06:06:34.084Z,204.28
2023-04-08T06:07:34.101Z,198.26
2023-04-08T06:08:34.087Z,194.39
2023-04-08T06:09:34.081Z,195.58
2023-04-08T06:10:34.074Z,199.67
2023-04-08T06:11:34.102Z,205.40
2023-04-08T06:12:34.100Z,210.01
2023-04-08T06:13:34.120Z,212.72
2023-04-08T06:14:34.123Z,212.50
2023-04-08T06:15:34.131Z,209.66
2023-04-08T06:16:34.157Z,204.54
2023-04-08T06:17:34.176Z,197.67
2023-04-08T06:18:34.177Z,194.00
2023-04-08T06:19:34.181Z,193.92
2023-04-08T06:20:34.208Z,193.00
2023-04-08T06:21:34.198Z,191.75
2023-04-08T06:22:34.202Z,192.44
2023-04-08T06:23:34.206Z,194.00
2023-04-08T06:24:34.217Z,201.18
2023-04-08T06:25:34.272Z,202.84
2023-04-08T06:26:34.244Z,195.48
2023-04-08T06:27:34.236Z,190.42
2023-04-08T06:28:34.251Z,187.95
2023-04-08T06:29:34.267Z,182.81
2023-04-08T06:30:34.288Z,179.19
2023-04-08T06:31:34.363Z,176.33
2023-04-08T06:32:34.355Z,169.79
2023-04-08T06:33:34.373Z,167.18
2023-04-08T06:34:34.382Z,167.99
2023-04-08T06:35:34.411Z,168.77
2023-04-08T06:36:34.438Z,168.67
2023-04-08T06:37:34.455Z,168.12
2023-04-08T06:38:34.507Z,165.81
2023-04-08T06:39:34.687Z,165.23
2023-04-08T06:40:34.567Z,164.81
2023-04-08T06:41:34.607Z,162.15
2023-04-08T06:42:34.653Z,162.28
2023-04-08T06:43:34.673Z,162.62
2023-04-08T06:44:34.697Z,159.79
2023-04-08T06:45:34.761Z,158.47
2023-04-08T06:46:34.750Z,165.41
2023-04-08T06:47:34.825Z,172.96
2023-04-08T06:48:34.825Z,177.95
2023-04-08T06:49:34.868Z,178.89
2023-04-08T06:50:34.875Z,176.26
2023-04-08T06:51:34.926Z,176.45
2023-04-08T06:52:34.928Z,177.39
2023-04-08T06:53:34.991Z,176.83
2023-04-08T06:54:34.981Z,175.27
2023-04-08T06:55:35.047Z,175.83
2023-04-08T06:56:35.088Z,177.38
2023-04-08T06:57:35.160Z,177.16
2023-04-08T06:58:35.198Z,177.01
2023-04-08T06:59:35.288Z,177.24
2023-04-08T07:00:35.304Z,176.70
2023-04-08T07:01:35.509Z,175.62
2023-04-08T07:02:35.551Z,175.65
2023-04-08T07:03:35.546Z,177.20
2023-04-08T07:04:35.534Z,177.07
2023-04-08T07:05:35.619Z,173.34
2023-04-08T07:06:35.675Z,170.89
2023-04-08T07:07:35.682Z,168.68
2023-04-08T07:08:36.041Z,165.01
2023-04-08T07:09:35.783Z,161.58
2023-04-08T07:10:35.858Z,158.79
2023-04-08T07:11:35.915Z,158.56
2023-04-08T07:12:35.977Z,159.93
2023-04-08T07:13:36.027Z,159.82
2023-04-08T07:14:36.126Z,159.85
2023-04-08T07:15:36.138Z,160.87
2023-04-08T07:16:36.212Z,163.55
2023-04-08T07:17:36.229Z,172.11
2023-04-08T07:18:36.228Z,176.24
2023-04-08T07:19:36.265Z,179.02
2023-04-08T07:20:36.304Z,180.41
2023-04-08T07:21:36.304Z,181.62
2023-04-08T07:22:36.348Z,179.58
2023-04-08T07:23:36.385Z,176.98
2023-04-08T07:24:36.414Z,169.96
2023-04-08T07:25:36.450Z,160.59
2023-04-08T07:26:36.469Z,150.14
2023-04-08T07:27:36.520Z,143.80
2023-04-08T07:28:36.492Z,137.36
2023-04-08T07:29:36.493Z,134.94
2023-04-08T07:30:36.532Z,130.58
2023-04-08T07:31:36.520Z,124.59
2023-04-08T07:32:36.566Z,124.16
2023-04-08T07:33:36.551Z,134.61
2023-04-08T07:34:36.571Z,143.51
2023-04-08T07:35:36.613Z,142.34
2023-04-08T07:36:36.588Z,141.19
2023-04-08T07:37:36.664Z,137.48
2023-04-08T07:38:36.639Z,134.39
2023-04-08T07:39:36.642Z,132.59
2023-04-08T07:40:36.624Z,130.38
2023-04-08T07:41:36.595Z,127.85
2023-04-08T07:42:36.989Z,127.08
2023-04-08T07:43:36.615Z,128.51
2023-04-08T07:44:36.642Z,131.31
2023-04-08T07:45:36.642Z,132.15
2023-04-08T07:46:36.714Z,124.10
2023-04-08T07:47:36.684Z,119.97
2023-04-08T07:48:36.692Z,114.78
2023-04-08T07:49:36.678Z,103.51
2023-04-08T07:50:36.700Z,97.59
2023-04-08T07:51:37.706Z,97.66
2023-04-08T07:52:36.670Z,98.87
2023-04-08T07:53:36.676Z,101.09
2023-04-08T07:54:36.677Z,103.64
2023-04-08T07:55:36.665Z,108.94
2023-04-08T07:56:36.660Z,107.32
2023-04-08T07:57:36.665Z,106.87
2023-04-08T07:58:36.640Z,105.29
2023-04-08T07:59:36.612Z,104.17
2023-04-08T08:00:36.616Z,104.15
2023-04-08T08:01:36.624Z,103.52
2023-04-08T08:02:36.662Z,100.77
2023-04-08T08:03:36.745Z,100.54
2023-04-08T08:04:36.751Z,101.94
2023-04-08T08:05:36.575Z,103.63
2023-04-08T08:06:36.587Z,108.28
2023-04-08T08:07:36.586Z,107.06
2023-04-08T08:08:36.584Z,106.84
2023-04-08T08:09:36.577Z,107.85
2023-04-08T08:10:36.562Z,109.60
2023-04-08T08:11:36.546Z,111.89
2023-04-08T08:12:36.567Z,106.93
2023-04-08T08:13:36.537Z,104.60
2023-04-08T08:14:36.523Z,103.62
2023-04-08T08:15:36.583Z,104.96
2023-04-08T08:16:36.628Z,106.56
2023-04-08T08:17:36.534Z,105.52
2023-04-08T08:18:36.502Z,106.35
2023-04-08T08:19:36.492Z,107.19
2023-04-08T08:20:36.480Z,106.83
2023-04-08T08:21:36.466Z,107.79
2023-04-08T08:22:41.829Z,108.56
2023-04-08T08:23:37.454Z,108.63
2023-04-08T08:24:36.462Z,108.73
2023-04-08T08:25:36.438Z,114.95
2023-04-08T08:26:36.457Z,121.06
2023-04-08T08:27:36.429Z,125.27
2023-04-08T08:28:36.423Z,120.78
2023-04-08T08:29:36.420Z,116.95
2023-04-08T08:30:36.420Z,110.32
2023-04-08T08:31:36.511Z,110.57
2023-04-08T08:32:36.598Z,111.19
2023-04-08T08:33:36.627Z,111.68
2023-04-08T08:34:36.661Z,113.70
2023-04-08T08:35:36.754Z,112.76
2023-04-08T08:36:36.821Z,111.58
2023-04-08T08:37:36.860Z,111.61
2023-04-08T08:38:36.900Z,112.36
2023-04-08T08:39:36.971Z,115.09
2023-04-08T08:40:37.003Z,116.13
2023-04-08T08:41:37.080Z,114.92
2023-04-08T08:42:37.123Z,107.75
2023-04-08T08:43:37.182Z,107.16
2023-04-08T08:44:37.213Z,109.76
2023-04-08T08:45:37.263Z,113.16
2023-04-08T08:46:37.372Z,117.76
2023-04-08T08:47:37.334Z,117.77
2023-04-08T08:48:37.323Z,111.82
2023-04-08T08:49:37.355Z,113.46
2023-04-08T08:50:37.358Z,113.82
2023-04-08T08:51:37.367Z,115.70
2023-04-08T08:52:37.383Z,120.26
2023-04-08T08:53:37.418Z,124.13
2023-04-08T08:54:37.445Z,116.53
2023-04-08T08:56:37.471Z,93.46
2023-04-08T08:57:37.454Z,94.83
2023-04-08T08:58:37.502Z,91.95
2023-04-08T08:59:37.449Z,86.51
2023-04-08T09:00:37.436Z,80.50
2023-04-08T09:01:37.615Z,88.82
2023-04-08T09:02:37.584Z,101.02
2023-04-08T09:03:37.578Z,93.43
2023-04-08T09:04:37.480Z,62.43
2023-04-08T09:05:37.533Z,51.05
2023-04-08T09:06:37.404Z,47.61
2023-04-08T09:07:37.384Z,48.83
2023-04-08T09:08:37.365Z,56.20
2023-04-08T09:09:37.359Z,67.56
2023-04-08T09:10:37.351Z,64.80
2023-04-08T09:11:37.349Z,65.41
2023-04-08T09:12:37.358Z,67.39
2023-04-08T09:13:37.344Z,67.10
2023-04-08T09:14:37.345Z,65.68
2023-04-08T09:15:37.334Z,61.25
2023-04-08T09:16:37.430Z,53.92
2023-04-08T09:17:37.511Z,44.98
2023-04-08T09:18:37.528Z,44.08
2023-04-08T09:19:37.552Z,41.90
2023-04-08T09:20:37.599Z,41.45
2023-04-08T09:21:37.648Z,30.99
2023-04-08T09:22:37.673Z,23.28
2023-04-08T09:23:37.821Z,24.93
2023-04-08T09:24:37.793Z,26.24
2023-04-08T09:25:37.840Z,28.04
2023-04-08T09:26:37.883Z,28.61
2023-04-08T09:27:37.937Z,29.77
2023-04-08T09:28:37.976Z,26.64
2023-04-08T09:29:39.826Z,25.42
2023-04-08T09:30:38.042Z,27.41
2023-04-08T09:31:38.137Z,29.02
2023-04-08T09:32:38.182Z,29.82
2023-04-08T09:33:38.161Z,31.15
2023-04-08T09:34:38.187Z,34.16
2023-04-08T09:35:38.289Z,30.89
2023-04-08T09:36:38.254Z,30.11
2023-04-08T09:37:38.299Z,33.16
2023-04-08T09:38:38.343Z,33.06
2023-04-08T09:39:38.392Z,35.15
2023-04-08T09:40:38.389Z,29.37
2023-04-08T09:41:38.424Z,25.00
2023-04-08T09:42:38.436Z,25.13
2023-04-08T09:43:38.470Z,26.54
2023-04-08T09:44:38.522Z,23.61
2023-04-08T09:45:38.567Z,26.34
2023-04-08T09:46:38.557Z,25.03
2023-04-08T09:47:38.630Z,25.96
2023-04-08T09:48:38.639Z,25.84
2023-04-08T09:49:38.673Z,24.98
2023-04-08T09:50:38.688Z,25.00
2023-04-08T09:51:38.746Z,25.16
2023-04-08T09:52:38.784Z,25.58
2023-04-08T09:53:38.833Z,27.95
2023-04-08T09:54:38.856Z,33.74
2023-04-08T09:55:38.867Z,38.19
2023-04-08T09:56:38.890Z,38.74
2023-04-08T09:57:38.911Z,37.50
2023-04-08T09:58:38.936Z,34.94
2023-04-08T09:59:38.948Z,37.49
2023-04-08T10:00:39.011Z,35.89
2023-04-08T10:01:39.045Z,34.93
2023-04-08T10:02:39.038Z,37.00
2023-04-08T10:03:39.049Z,39.49
2023-04-08T10:04:39.024Z,41.92
2023-04-08T10:05:39.004Z,44.26
2023-04-08T10:06:38.996Z,43.50
2023-04-08T10:07:39.009Z,40.70
2023-04-08T10:08:39.007Z,41.74
2023-04-08T10:09:39.034Z,33.50
2023-04-08T10:10:39.021Z,20.66
2023-04-08T10:11:39.038Z,12.25
2023-04-08T10:12:39.024Z,11.93
2023-04-08T10:13:39.046Z,17.42
2023-04-08T10:14:39.051Z,23.17
2023-04-08T10:15:39.093Z,27.46
2023-04-08T10:16:39.214Z,24.56
2023-04-08T10:17:39.220Z,25.24
2023-04-08T10:18:39.257Z,24.95
2023-04-08T10:19:39.271Z,25.72
2023-04-08T10:20:39.313Z,27.15
2023-04-08T10:21:39.325Z,28.86
2023-04-08T10:22:39.389Z,28.30
2023-04-08T10:23:39.424Z,19.72
2023-04-08T10:24:39.464Z,20.15
2023-04-08T10:25:39.471Z,25.00
2023-04-08T10:26:39.494Z,25.81
2023-04-08T10:27:39.504Z,24.76
2023-04-08T10:28:39.531Z,25.53
2023-04-08T10:29:39.530Z,27.90
2023-04-08T10:30:39.558Z,27.36
2023-04-08T10:31:39.679Z,25.88
2023-04-08T10:32:39.696Z,27.15
2023-04-08T10:33:41.003Z,28.34
2023-04-08T10:34:39.789Z,27.18
2023-04-08T10:35:39.942Z,29.10
2023-04-08T10:36:39.868Z,29.62
2023-04-08T10:37:39.904Z,32.69
2023-04-08T10:38:39.984Z,34.36
2023-04-08T10:39:39.941Z,34.81
2023-04-08T10:40:39.957Z,33.78
2023-04-08T10:41:40.017Z,33.91
2023-04-08T10:42:40.021Z,33.14
2023-04-08T10:43:40.086Z,36.19
2023-04-08T10:44:40.154Z,39.77
2023-04-08T10:45:40.247Z,39.20
2023-04-08T10:46:40.276Z,37.23
2023-04-08T10:47:40.368Z,37.70
2023-04-08T10:48:40.337Z,34.89
2023-04-08T10:49:40.377Z,32.80
2023-04-08T10:50:40.390Z,31.73
2023-04-08T10:51:40.421Z,35.41
2023-04-08T10:52:40.439Z,32.25
2023-04-08T10:53:40.456Z,30.36
2023-04-08T10:54:40.500Z,31.95
2023-04-08T10:55:40.516Z,28.95
2023-04-08T10:56:40.505Z,28.01
2023-04-08T10:57:40.560Z,28.69
2023-04-08T10:58:40.548Z,30.83
2023-04-08T10:59:40.602Z,28.40
2023-04-08T11:00:40.616Z,28.34
2023-04-08T11:01:40.684Z,29.40
2023-04-08T11:02:40.742Z,27.83
2023-04-08T11:03:40.795Z,24.70
2023-04-08T11:04:40.853Z,26.73
2023-04-08T11:05:40.835Z,30.25
2023-04-08T11:06:40.865Z,31.23
2023-04-08T11:07:40.871Z,29.02
2023-04-08T11:08:40.911Z,25.51
2023-04-08T11:09:40.923Z,25.70
2023-04-08T11:10:40.959Z,24.74
2023-04-08T11:11:40.988Z,25.00
2023-04-08T11:12:41.012Z,24.11
2023-04-08T11:13:42.931Z,25.06
2023-04-08T11:14:41.995Z,24.90
2023-04-08T11:15:41.027Z,23.70
2023-04-08T11:16:41.023Z,24.55
2023-04-08T11:17:41.050Z,23.24
2023-04-08T11:18:40.976Z,19.51
2023-04-08T11:19:40.985Z,22.49
2023-04-08T11:20:40.979Z,28.93
2023-04-08T11:21:40.972Z,35.25
2023-04-08T11:22:40.971Z,37.73
2023-04-08T11:23:40.958Z,42.38
2023-04-08T11:24:40.957Z,42.14
2023-04-08T11:25:40.973Z,41.29
2023-04-08T11:26:40.979Z,37.95
2023-04-08T11:27:40.989Z,34.01
2023-04-08T11:28:40.984Z,33.62
2023-04-08T11:29:41.015Z,32.99
2023-04-08T11:30:41.068Z,33.88
2023-04-08T11:31:41.124Z,35.93
2023-04-08T11:32:41.164Z,34.70
2023-04-08T11:33:41.095Z,35.58
2023-04-08T11:34:41.134Z,38.71
2023-04-08T11:35:41.179Z,40.16
2023-04-08T11:36:41.232Z,43.07
2023-04-08T11:37:41.274Z,39.93
2023-04-08T11:38:41.322Z,39.74
2023-04-08T11:39:41.384Z,40.09
2023-04-08T11:40:41.415Z,40.44
2023-04-08T11:41:41.484Z,43.27
2023-04-08T11:42:41.525Z,43.97
2023-04-08T11:43:41.582Z,41.70
2023-04-08T11:44:41.602Z,40.94
2023-04-08T11:45:41.657Z,38.03
2023-04-08T11:46:41.720Z,39.04
2023-04-08T11:47:41.759Z,38.42
2023-04-08T11:48:41.757Z,36.07
2023-04-08T11:49:41.774Z,34.10
2023-04-08T11:50:41.807Z,35.06
2023-04-08T11:51:41.848Z,37.48
2023-04-08T11:52:41.895Z,37.80
2023-04-08T11:53:41.953Z,37.26
2023-04-08T11:54:41.963Z,36.28
2023-04-08T11:55:41.981Z,35.76
2023-04-08T11:56:42.014Z,37.80
2023-04-08T11:57:42.025Z,38.65
2023-04-08T11:58:42.042Z,39.79
2023-04-08T11:59:42.059Z,38.31
2023-04-08T12:00:42.106Z,38.35
2023-04-08T12:01:42.155Z,39.68
2023-04-08T12:02:42.203Z,42.06
2023-04-08T12:03:42.276Z,46.11
2023-04-08T12:04:42.275Z,50.15
2023-04-08T12:05:42.202Z,49.37
2023-04-08T12:06:42.197Z,48.22
2023-04-08T12:07:42.236Z,44.91
2023-04-08T12:08:42.287Z,45.50
2023-04-08T12:09:42.322Z,45.29
2023-04-08T12:10:42.330Z,44.53
2023-04-08T12:11:42.379Z,44.69
2023-04-08T12:12:42.410Z,47.76
2023-04-08T12:13:42.464Z,50.89
2023-04-08T12:14:42.518Z,52.60
2023-04-08T12:15:42.675Z,52.29
2023-04-08T12:16:42.696Z,51.19
2023-04-08T12:17:42.619Z,52.50
2023-04-08T12:18:42.607Z,52.17
2023-04-08T12:19:42.674Z,52.45
2023-04-08T12:20:42.709Z,49.28
2023-04-08T12:21:42.765Z,42.84
2023-04-08T12:22:42.792Z,44.52
2023-04-08T12:23:42.814Z,48.61
2023-04-08T12:24:42.806Z,53.91
2023-04-08T12:25:42.819Z,55.19
2023-04-08T12:26:42.867Z,52.47
2023-04-08T12:27:42.859Z,53.67
2023-04-08T12:28:42.872Z,53.80
2023-04-08T12:29:42.865Z,50.35
2023-04-08T12:30:42.881Z,47.92
2023-04-08T12:31:42.919Z,49.45
2023-04-08T12:32:42.955Z,50.35
2023-04-08T12:33:42.903Z,50.95
2023-04-08T12:34:42.917Z,51.81
2023-04-08T12:35:42.946Z,53.26
2023-04-08T12:36:43.003Z,57.06